createdAt,value
2022-09-19T00:01:55.094Z,2.08
2022-09-19T00:04:31.580Z,2.33
2022-09-19T00:07:00.612Z,2.80
2022-09-19T00:11:59.479Z,3.22
2022-09-19T00:14:32.873Z,3.03
2022-09-19T00:17:08.641Z,2.40
2022-09-19T00:19:38.337Z,2.78
2022-09-19T00:22:06.938Z,2.38
2022-09-19T00:24:46.592Z,2.92
2022-09-19T00:27:21.937Z,3.13
2022-09-19T00:29:50.486Z,2.45
2022-09-19T00:32:18.353Z,2.55
2022-09-19T00:34:51.344Z,2.83
2022-09-19T00:37:21.356Z,2.53
2022-09-19T00:39:49.292Z,2.83
2022-09-19T00:42:22.540Z,3.25
2022-09-19T00:45:14.388Z,3.88
2022-09-19T00:47:49.281Z,4.20
2022-09-19T00:50:28.410Z,3.38
2022-09-19T00:53:01.433Z,3.80
2022-09-19T00:55:30.009Z,4.00
2022-09-19T00:58:07.819Z,4.18
2022-09-19T01:00:39.167Z,3.92
2022-09-19T01:03:10.877Z,4.47
2022-09-19T01:05:51.566Z,4.90
2022-09-19T01:08:44.693Z,4.47
2022-09-19T01:11:31.231Z,3.80
2022-09-19T01:14:13.151Z,4.00
2022-09-19T01:16:54.110Z,4.28
2022-09-19T01:19:43.404Z,4.72
2022-09-19T01:22:21.333Z,4.30
2022-09-19T01:25:05.211Z,5.00
2022-09-19T01:27:54.674Z,4.32
2022-09-19T01:30:23.943Z,4.40
2022-09-19T01:33:10.234Z,4.35
2022-09-19T01:35:40.718Z,4.80
2022-09-19T01:38:16.763Z,4.30
2022-09-19T01:40:45.722Z,4.75
2022-09-19T01:45:43.560Z,5.70
2022-09-19T01:48:51.246Z,4.55
2022-09-19T01:51:30.089Z,4.18
2022-09-19T01:54:23.014Z,4.35
2022-09-19T01:57:13.634Z,4.70
2022-09-19T02:00:01.863Z,4.47
2022-09-19T02:02:48.141Z,5.05
2022-09-19T02:05:22.886Z,4.30
2022-09-19T02:08:10.988Z,5.20
2022-09-19T02:10:47.921Z,4.25
2022-09-19T02:13:18.458Z,4.18
2022-09-19T02:16:01.967Z,3.70
2022-09-19T02:18:36.749Z,4.20
2022-09-19T02:21:09.655Z,4.30
2022-09-19T02:23:48.191Z,4.05
2022-09-19T02:26:20.781Z,4.07
2022-09-19T02:28:55.662Z,4.05
2022-09-19T02:31:28.412Z,3.65
2022-09-19T02:34:02.034Z,3.85
2022-09-19T02:36:35.933Z,3.90
2022-09-19T02:39:33.991Z,3.75
2022-09-19T02:42:35.079Z,3.50
2022-09-19T02:45:31.168Z,3.35
2022-09-19T02:48:07.084Z,3.63
2022-09-19T02:50:44.848Z,4.50
2022-09-19T02:53:17.859Z,4.60
2022-09-19T02:55:56.864Z,4.30
2022-09-19T02:58:30.121Z,5.00
2022-09-19T03:01:07.494Z,4.63
2022-09-19T03:04:06.529Z,4.22
2022-09-19T03:06:45.626Z,4.75
2022-09-19T03:09:18.335Z,4.47
2022-09-19T03:11:51.877Z,4.97
2022-09-19T03:14:20.497Z,4.57
2022-09-19T03:16:51.202Z,4.45
2022-09-19T03:19:19.119Z,3.70
2022-09-19T03:21:46.702Z,4.00
2022-09-19T03:24:17.648Z,4.65
2022-09-19T03:26:45.963Z,4.28
2022-09-19T03:29:13.973Z,4.30
2022-09-19T03:31:55.232Z,4.30
2022-09-19T03:34:24.214Z,4.65
2022-09-19T03:36:53.715Z,4.13
2022-09-19T03:39:28.226Z,3.63
2022-09-19T03:41:57.634Z,4.00
2022-09-19T03:44:25.324Z,4.45
2022-09-19T03:46:52.879Z,5.00
2022-09-19T03:49:20.799Z,4.72
2022-09-19T03:51:50.559Z,4.70
2022-09-19T03:54:18.656Z,5.07
2022-09-19T03:56:47.267Z,5.10
2022-09-19T03:59:16.014Z,4.90
2022-09-19T04:01:48.531Z,5.25
2022-09-19T04:04:17.388Z,7.25
2022-09-19T04:06:50.363Z,5.80
2022-09-19T04:09:18.585Z,5.60
2022-09-19T04:11:49.179Z,6.28
2022-09-19T04:14:20.326Z,6.28
2022-09-19T04:17:02.584Z,7.07
2022-09-19T04:19:36.207Z,7.88
2022-09-19T04:22:28.290Z,8.02
2022-09-19T04:25:36.442Z,8.95
2022-09-19T04:28:15.072Z,8.52
2022-09-19T04:33:12.782Z,9.18
2022-09-19T04:35:43.118Z,9.85
2022-09-19T04:38:14.356Z,9.63
2022-09-19T04:40:44.240Z,11.07
2022-09-19T04:43:15.122Z,11.07
2022-09-19T04:45:49.650Z,10.75
2022-09-19T04:48:25.880Z,11.75
2022-09-19T04:50:54.708Z,11.32
2022-09-19T04:53:25.469Z,11.90
2022-09-19T04:55:56.789Z,11.23
2022-09-19T04:58:24.533Z,11.68
2022-09-19T05:00:56.610Z,12.27
2022-09-19T05:03:27.039Z,12.27
2022-09-19T05:05:56.431Z,12.70
2022-09-19T05:08:31.296Z,12.70
2022-09-19T05:11:06.493Z,12.70
2022-09-19T05:13:39.326Z,13.27
2022-09-19T05:16:11.529Z,13.57
2022-09-19T05:18:43.727Z,12.88
2022-09-19T05:21:16.428Z,13.82
2022-09-19T05:23:44.960Z,14.63
2022-09-19T05:26:17.389Z,14.13
2022-09-19T05:28:48.995Z,14.48
2022-09-19T05:31:20.344Z,13.85
2022-09-19T05:33:58.770Z,14.13
2022-09-19T05:36:28.607Z,14.10
2022-09-19T05:39:15.379Z,13.90
2022-09-19T05:42:02.621Z,13.35
2022-09-19T05:44:33.768Z,14.77
2022-09-19T05:47:04.116Z,13.98
2022-09-19T05:49:34.059Z,14.20
2022-09-19T05:52:23.920Z,14.75
2022-09-19T05:54:51.636Z,14.32
2022-09-19T05:57:42.403Z,12.60
2022-09-19T06:00:12.346Z,14.43
2022-09-19T06:02:42.588Z,13.05
2022-09-19T06:05:12.737Z,13.93
2022-09-19T06:07:43.403Z,15.07
2022-09-19T06:10:11.256Z,13.27
2022-09-19T06:12:40.348Z,12.75
2022-09-19T06:15:10.240Z,14.18
2022-09-19T06:17:37.862Z,14.10
2022-09-19T06:20:31.858Z,14.27
2022-09-19T06:23:11.643Z,14.55
2022-09-19T06:25:40.704Z,13.68
2022-09-19T06:28:12.850Z,13.25
2022-09-19T06:30:47.890Z,13.33
2022-09-19T06:33:20.725Z,12.43
2022-09-19T06:35:59.184Z,13.93
2022-09-19T06:38:29.911Z,14.90
2022-09-19T06:41:09.280Z,13.77
2022-09-19T06:44:09.125Z,13.43
2022-09-19T06:46:57.384Z,14.50
2022-09-19T06:49:32.064Z,14.20
2022-09-19T06:52:15.524Z,14.18
2022-09-19T06:54:43.418Z,15.38
2022-09-19T06:57:12.551Z,14.32
2022-09-19T06:59:42.140Z,14.55
2022-09-19T07:02:10.398Z,13.65
2022-09-19T07:04:39.407Z,14.63
2022-09-19T07:07:32.254Z,13.40
2022-09-19T07:10:01.291Z,13.30
2022-09-19T07:12:38.104Z,14.13
2022-09-19T07:15:09.421Z,14.60
2022-09-19T07:17:37.225Z,14.38
2022-09-19T07:20:05.473Z,14.40
2022-09-19T07:25:39.372Z,14.30
2022-09-19T07:28:10.422Z,14.50
2022-09-19T07:30:40.329Z,15.40
2022-09-19T07:33:10.453Z,14.07
2022-09-19T07:35:41.925Z,13.50
2022-09-19T07:38:18.371Z,13.48
2022-09-19T07:41:02.524Z,12.95
2022-09-19T07:43:34.812Z,14.07
2022-09-19T07:46:34.023Z,13.55
2022-09-19T07:49:24.245Z,11.77
2022-09-19T07:52:03.004Z,12.82
2022-09-19T07:54:31.254Z,12.70
2022-09-19T07:57:01.229Z,12.48
2022-09-19T07:59:28.782Z,12.77
2022-09-19T08:02:00.580Z,11.55
2022-09-19T08:04:38.340Z,11.80
2022-09-19T08:07:07.655Z,11.80
2022-09-19T08:09:39.052Z,10.65
2022-09-19T08:12:13.104Z,10.20
2022-09-19T08:15:02.747Z,10.18
2022-09-19T08:17:30.472Z,10.17
2022-09-19T08:19:58.759Z,10.15
2022-09-19T08:22:27.459Z,8.57
2022-09-19T08:25:02.469Z,8.65
2022-09-19T08:27:32.170Z,8.15
2022-09-19T08:30:00.905Z,9.65
2022-09-19T08:32:31.177Z,8.63
2022-09-19T08:35:01.489Z,8.38
2022-09-19T08:37:30.331Z,8.82
2022-09-19T08:40:19.048Z,8.32
2022-09-19T08:43:01.025Z,8.52
2022-09-19T08:46:02.527Z,8.35
2022-09-19T08:48:56.163Z,7.88
2022-09-19T08:51:56.219Z,7.85
2022-09-19T08:54:33.554Z,8.82
2022-09-19T08:57:33.470Z,8.27
2022-09-19T09:00:11.955Z,7.60
2022-09-19T09:03:13.982Z,6.20
2022-09-19T09:05:53.574Z,5.88
2022-09-19T09:08:50.739Z,6.30
2022-09-19T09:11:42.916Z,5.88
2022-09-19T09:14:20.390Z,4.55
2022-09-19T09:17:02.889Z,4.82
2022-09-19T09:19:43.500Z,4.45
2022-09-19T09:22:27.647Z,3.17
2022-09-19T09:25:20.170Z,2.80
2022-09-19T09:31:26.788Z,2.33
2022-09-19T09:34:07.452Z,2.40
2022-09-19T09:36:49.724Z,2.40
2022-09-19T09:39:27.143Z,1.80
2022-09-19T09:41:59.000Z,1.65
2022-09-19T09:44:47.543Z,1.98
2022-09-19T09:47:28.756Z,1.70
2022-09-19T09:50:59.805Z,1.20
2022-09-19T09:53:47.352Z,1.35
2022-09-19T09:56:41.512Z,1.20
2022-09-19T10:00:00.712Z,1.30
2022-09-19T10:02:53.525Z,1.30
2022-09-19T10:05:38.291Z,1.50
2022-09-19T10:08:17.210Z,0.90
2022-09-19T10:10:46.100Z,1.00
2022-09-19T10:13:26.755Z,1.63
2022-09-19T10:16:04.372Z,1.60
2022-09-19T10:18:44.534Z,1.30
2022-09-19T10:21:16.344Z,2.03
2022-09-19T10:23:51.400Z,1.42
2022-09-19T10:26:30.043Z,2.00
2022-09-19T10:29:03.910Z,2.13
2022-09-19T10:31:45.725Z,2.53
2022-09-19T10:34:52.788Z,1.83
2022-09-19T10:41:40.839Z,3.00
2022-09-19T10:44:29.919Z,2.40
2022-09-19T10:47:05.825Z,1.75
2022-09-19T10:50:00.700Z,2.05
2022-09-19T10:52:51.789Z,2.35
2022-09-19T10:55:26.141Z,2.05
2022-09-19T10:58:02.349Z,2.38
2022-09-19T11:00:52.716Z,2.28
2022-09-19T11:03:30.886Z,2.53
2022-09-19T11:06:18.054Z,2.53
2022-09-19T11:08:57.035Z,3.08
2022-09-19T11:11:50.968Z,3.60
2022-09-19T11:14:39.082Z,5.22
2022-09-19T11:17:30.915Z,4.55
2022-09-19T11:20:19.770Z,3.83
2022-09-19T11:23:32.934Z,3.00
2022-09-19T11:26:37.087Z,3.22
2022-09-19T11:29:25.621Z,2.40
2022-09-19T11:32:54.678Z,2.22
2022-09-19T11:35:58.582Z,2.63
2022-09-19T11:41:55.840Z,2.65
2022-09-19T11:45:03.238Z,3.20
2022-09-19T11:47:36.630Z,2.63
2022-09-19T11:50:34.743Z,2.75
2022-09-19T11:53:38.715Z,2.33
2022-09-19T11:57:02.469Z,1.80
2022-09-19T11:59:50.176Z,2.30
2022-09-19T12:02:37.876Z,2.05
2022-09-19T12:08:19.159Z,2.30
2022-09-19T12:11:02.322Z,2.47
2022-09-19T12:13:47.251Z,2.88
2022-09-19T12:16:26.358Z,2.33
2022-09-19T12:19:11.273Z,2.25
2022-09-19T12:21:54.948Z,2.38
2022-09-19T12:24:54.588Z,2.58
2022-09-19T12:27:41.928Z,2.72
2022-09-19T12:30:24.488Z,2.33
2022-09-19T12:33:26.166Z,2.22
2022-09-19T12:36:07.437Z,2.88
2022-09-19T12:38:41.455Z,2.50
2022-09-19T12:41:36.744Z,2.90
2022-09-19T12:44:23.259Z,4.20
2022-09-19T12:47:02.057Z,2.85
2022-09-19T12:50:10.216Z,4.32
2022-09-19T12:52:48.521Z,5.45
2022-09-19T12:55:27.640Z,3.27
2022-09-19T12:58:06.608Z,3.55
2022-09-19T13:00:40.655Z,2.80
2022-09-19T13:03:15.058Z,3.00
2022-09-19T13:05:56.756Z,2.70
2022-09-19T13:08:37.196Z,2.65
2022-09-19T13:11:32.341Z,2.63
2022-09-19T13:14:17.208Z,2.30
2022-09-19T13:17:05.386Z,3.33
2022-09-19T13:20:14.483Z,3.03
2022-09-19T13:23:12.633Z,2.67
2022-09-19T13:25:44.796Z,2.72
2022-09-19T13:28:21.427Z,2.50
2022-09-19T13:31:08.043Z,1.90
2022-09-19T13:34:13.755Z,2.80
2022-09-19T13:36:43.422Z,2.78
2022-09-19T13:39:56.635Z,2.50
2022-09-19T13:42:38.198Z,2.08
2022-09-19T13:45:31.117Z,2.30
2022-09-19T13:48:31.068Z,2.72
2022-09-19T13:51:10.039Z,3.10
2022-09-19T13:53:41.538Z,5.03
2022-09-19T13:56:49.019Z,4.60
2022-09-19T13:59:38.991Z,3.83
2022-09-19T14:02:13.409Z,2.80
2022-09-19T14:04:54.138Z,3.15
2022-09-19T14:10:49.179Z,4.22
2022-09-19T14:13:28.835Z,3.13
2022-09-19T14:16:08.416Z,3.70
2022-09-19T14:18:49.843Z,2.97
2022-09-19T14:21:36.028Z,4.40
2022-09-19T14:24:29.500Z,3.05
2022-09-19T14:27:29.625Z,3.17
2022-09-19T14:30:34.704Z,3.60
2022-09-19T14:33:33.103Z,3.67
2022-09-19T14:36:40.550Z,2.20
2022-09-19T14:39:21.744Z,1.83
2022-09-19T14:42:08.623Z,1.85
2022-09-19T14:45:06.067Z,1.95
2022-09-19T14:47:47.670Z,1.77
2022-09-19T14:50:28.855Z,1.75
2022-09-19T14:53:22.712Z,1.80
2022-09-19T14:55:51.223Z,1.65
2022-09-19T14:58:30.768Z,1.50
2022-09-19T15:01:07.995Z,2.03
2022-09-19T15:03:58.195Z,1.50
2022-09-19T15:06:33.696Z,2.50
2022-09-19T15:09:02.780Z,2.15
2022-09-19T15:11:31.211Z,3.10
2022-09-19T15:14:00.484Z,2.92
2022-09-19T15:16:28.940Z,3.80
2022-09-19T15:18:59.087Z,3.60
2022-09-19T15:21:33.348Z,4.57
2022-09-19T15:24:04.085Z,5.32
2022-09-19T15:26:41.735Z,3.85
2022-09-19T15:29:37.915Z,3.90
2022-09-19T15:32:17.698Z,4.18
2022-09-19T15:34:53.624Z,3.53
2022-09-19T15:37:24.738Z,4.25
2022-09-19T15:39:54.251Z,4.47
2022-09-19T15:42:22.306Z,4.65
2022-09-19T15:44:54.945Z,4.72
2022-09-19T15:47:30.236Z,4.55
2022-09-19T15:50:01.268Z,4.32
2022-09-19T15:52:40.636Z,4.22
2022-09-19T15:55:32.464Z,3.35
2022-09-19T15:58:02.743Z,3.90
2022-09-19T16:00:31.769Z,3.60
2022-09-19T16:03:02.173Z,3.90
2022-09-19T16:05:32.547Z,3.70
2022-09-19T16:08:20.928Z,4.15
2022-09-19T16:10:55.025Z,4.70
2022-09-19T16:13:41.352Z,3.97
2022-09-19T16:16:30.629Z,4.10
2022-09-19T16:19:02.038Z,3.97
2022-09-19T16:21:44.069Z,3.67
2022-09-19T16:24:18.356Z,4.00
2022-09-19T16:26:50.517Z,4.43
2022-09-19T16:29:18.897Z,3.55
2022-09-19T16:31:49.556Z,3.92
2022-09-19T16:34:33.195Z,3.58
2022-09-19T16:37:02.196Z,4.75
2022-09-19T16:42:12.930Z,4.03
2022-09-19T16:44:48.798Z,4.20
2022-09-19T16:47:21.296Z,4.68
2022-09-19T16:49:52.378Z,4.20
2022-09-19T16:52:51.303Z,4.28
2022-09-19T16:55:39.661Z,3.78
2022-09-19T16:58:16.716Z,3.85
2022-09-19T17:00:48.260Z,3.38
2022-09-19T17:03:16.149Z,3.80
2022-09-19T17:05:44.432Z,3.97
2022-09-19T17:10:42.038Z,3.90
2022-09-19T17:13:18.006Z,4.13
2022-09-19T17:15:50.973Z,3.72
2022-09-19T17:18:18.695Z,3.63
2022-09-19T17:20:46.704Z,3.95
2022-09-19T17:23:16.237Z,4.00
2022-09-19T17:25:50.292Z,3.60
2022-09-19T17:28:18.203Z,3.28
2022-09-19T17:30:47.245Z,4.22
2022-09-19T17:33:18.348Z,4.55
2022-09-19T17:35:47.244Z,4.07
2022-09-19T17:38:40.698Z,4.32
2022-09-19T17:41:10.990Z,4.63
2022-09-19T17:43:38.753Z,5.28
2022-09-19T17:46:12.885Z,5.32
2022-09-19T17:48:41.649Z,5.32
2022-09-19T17:51:12.254Z,6.07
2022-09-19T17:53:43.915Z,4.82
2022-09-19T17:56:12.622Z,5.45
2022-09-19T17:58:50.526Z,18.50
2022-09-19T18:01:38.378Z,17.23
2022-09-19T18:04:07.588Z,10.68
2022-09-19T18:06:41.356Z,10.20
2022-09-19T18:09:15.652Z,7.88
2022-09-19T18:11:44.426Z,7.35
2022-09-19T18:14:17.185Z,5.97
2022-09-19T18:16:48.591Z,6.20
2022-09-19T18:19:17.204Z,5.72
2022-09-19T18:21:45.115Z,5.68
2022-09-19T18:24:13.166Z,6.53
2022-09-19T18:26:41.654Z,5.63
2022-09-19T18:29:15.965Z,5.60
2022-09-19T18:31:46.232Z,10.27
2022-09-19T18:34:16.128Z,9.10
2022-09-19T18:36:46.471Z,8.40
2022-09-19T18:39:14.452Z,8.45
2022-09-19T18:41:43.046Z,7.75
2022-09-19T18:44:11.355Z,7.10
2022-09-19T18:46:40.473Z,6.97
2022-09-19T18:49:10.830Z,7.10
2022-09-19T18:51:38.549Z,7.40
2022-09-19T18:54:06.891Z,6.20
2022-09-19T18:56:35.825Z,6.85
2022-09-19T18:59:04.384Z,7.30
2022-09-19T19:01:36.117Z,7.60
2022-09-19T19:04:05.711Z,7.68
2022-09-19T19:06:35.747Z,8.43
2022-09-19T19:09:08.302Z,8.00
2022-09-19T19:11:43.036Z,8.63
2022-09-19T19:14:15.409Z,7.85
2022-09-19T19:16:43.303Z,8.65
2022-09-19T19:19:11.197Z,10.73
2022-09-19T19:21:42.454Z,10.50
2022-09-19T19:24:19.485Z,10.98
2022-09-19T19:26:48.291Z,11.13
2022-09-19T19:29:16.155Z,11.55
2022-09-19T19:31:43.896Z,18.30
2022-09-19T19:34:11.975Z,21.92
2022-09-19T19:36:40.324Z,19.92
2022-09-19T19:39:09.509Z,19.40
2022-09-19T19:41:44.487Z,16.02
2022-09-19T19:44:12.638Z,10.88
2022-09-19T19:46:40.506Z,11.27
2022-09-19T19:49:12.581Z,11.88
2022-09-19T19:51:43.010Z,12.43
2022-09-19T19:54:13.930Z,9.32
2022-09-19T19:56:44.754Z,10.45
2022-09-19T19:59:13.403Z,10.63
2022-09-19T20:01:41.207Z,8.80
2022-09-19T20:04:15.080Z,8.55
2022-09-19T20:06:47.085Z,9.38
2022-09-19T20:09:15.740Z,8.68
2022-09-19T20:11:44.428Z,7.43
2022-09-19T20:14:17.377Z,7.85
2022-09-19T20:16:48.223Z,7.35
2022-09-19T20:19:19.821Z,6.15
2022-09-19T20:21:50.795Z,5.35
2022-09-19T20:24:21.748Z,5.78
2022-09-19T20:26:59.097Z,6.07
2022-09-19T20:29:29.746Z,6.82
2022-09-19T20:32:01.653Z,7.03
2022-09-19T20:34:30.149Z,7.50
2022-09-19T20:36:59.960Z,7.28
2022-09-19T20:39:28.168Z,6.75
2022-09-19T20:41:56.436Z,6.47
2022-09-19T20:44:24.239Z,6.53
2022-09-19T20:46:51.764Z,6.43
2022-09-19T20:51:50.063Z,6.30
2022-09-19T20:54:23.079Z,5.72
2022-09-19T20:56:56.197Z,5.78
2022-09-19T20:59:23.993Z,5.88
2022-09-19T21:01:52.616Z,5.63
2022-09-19T21:04:21.276Z,5.90
2022-09-19T21:09:17.257Z,6.07
2022-09-19T21:11:45.039Z,5.30
2022-09-19T21:14:13.174Z,5.28
2022-09-19T21:16:40.977Z,5.00
2022-09-19T21:19:10.456Z,4.13
2022-09-19T21:21:39.031Z,4.35
2022-09-19T21:24:08.362Z,3.70
2022-09-19T21:26:36.972Z,3.63
2022-09-19T21:29:07.914Z,3.72
2022-09-19T21:31:36.941Z,3.75
2022-09-19T21:34:06.180Z,4.00
2022-09-19T21:36:36.524Z,3.78
2022-09-19T21:39:05.187Z,3.38
2022-09-19T21:41:35.073Z,3.53
2022-09-19T21:44:05.079Z,3.55
2022-09-19T21:46:35.575Z,3.67
2022-09-19T21:49:03.624Z,2.95
2022-09-19T21:51:37.599Z,3.13
2022-09-19T21:54:06.906Z,3.28
2022-09-19T21:56:35.815Z,3.30
2022-09-19T21:59:06.154Z,3.60
2022-09-19T22:01:39.282Z,3.72
2022-09-19T22:04:07.210Z,3.97
2022-09-19T22:06:35.731Z,4.07
2022-09-19T22:09:10.226Z,5.25
2022-09-19T22:12:02.983Z,5.30
2022-09-19T22:14:33.502Z,4.97
2022-09-19T22:17:02.310Z,4.93
2022-09-19T22:19:30.099Z,4.30
2022-09-19T22:21:57.931Z,4.25
2022-09-19T22:24:27.881Z,4.78
2022-09-19T22:26:56.758Z,4.72
2022-09-19T22:29:25.907Z,3.78
2022-09-19T22:31:53.724Z,4.73
2022-09-19T22:34:21.510Z,4.43
2022-09-19T22:36:49.400Z,4.20
2022-09-19T22:39:17.838Z,4.03
2022-09-19T22:41:47.943Z,4.18
2022-09-19T22:44:15.887Z,4.07
2022-09-19T22:46:44.775Z,3.70
2022-09-19T22:51:44.102Z,3.42
2022-09-19T22:56:45.414Z,3.75
2022-09-19T22:59:14.759Z,3.95
2022-09-19T23:01:43.847Z,4.10
2022-09-19T23:04:11.471Z,4.22
2022-09-19T23:06:41.398Z,3.92
2022-09-19T23:09:14.413Z,4.28
2022-09-19T23:11:43.501Z,4.43
2022-09-19T23:14:19.086Z,4.30
2022-09-19T23:16:47.657Z,5.07
2022-09-19T23:19:17.890Z,4.93
2022-09-19T23:21:48.835Z,4.70
2022-09-19T23:24:19.955Z,5.18
2022-09-19T23:26:50.106Z,3.80
2022-09-19T23:29:19.282Z,5.28
2022-09-19T23:31:48.327Z,4.80
2022-09-19T23:34:19.135Z,5.10
2022-09-19T23:36:48.048Z,4.82
2022-09-19T23:39:18.489Z,5.75
2022-09-19T23:41:46.405Z,5.65
2022-09-19T23:44:14.753Z,6.45
2022-09-19T23:46:42.459Z,7.13
2022-09-19T23:49:10.239Z,7.13
2022-09-19T23:51:38.041Z,6.72
2022-09-19T23:54:06.582Z,7.25
2022-09-19T23:56:35.885Z,6.82
2022-09-19T23:59:03.929Z,6.75
